• Join FlightAware (Why Join?)
  • Login
  • US Flag 
11:51PM EDT


 

Airport Tracker/Info


-or-


 

Live Flight TrackerFlight Track Log ✈ EJA951 ✈ 18-Mar-2014 ✈ KSJC - KIAD

Flight Track Log - Related Links

Times and Time Zones

All times are in EDT time to prevent confusion due to time zone crossing. See the EJA951 flight status page for this flight to view local times or setup timezone preferences in your user account.

Time Position Orientation Groundspeed Altitude Reporting Facility
EDT Latitude Longitude Course Direction KTS MPH feet Rate Location/Type
12:33PM 37.4000 -121.9667 360° North 192 221 2,200  Level Northern Cal TRACON
12:34PM 37.4333 -121.9667 360° North 208 239 4,900 1,320 Climbing Northern Cal TRACON
12:35PM 37.4000 -121.9000 122° Southeast 244 281 4,900 1,260 Level Northern Cal TRACON
12:36PM 37.3458 -121.8542 146° Southeast 240 276 7,800 2,220 Climbing Oakland Center
12:37PM 37.2861 -121.8472 175° South 263 303 9,900 2,040 Climbing Oakland Center
12:38PM 37.3106 -121.9197 293° West 263 303 12,100 1,980 Climbing Oakland Center
12:39PM 37.3853 -121.9003 12° North 274 315 14,000 1,500 Climbing Oakland Center
12:40PM 37.4692 -121.8642 19° North 313 360 15,200 1,260 Climbing Oakland Center
12:41PM 37.5644 -121.7728 37° Northeast 375 432 16,600 1,380 Climbing Oakland Center
12:42PM 37.6339 -121.6681 50° Northeast 387 445 18,100 1,500 Climbing Oakland Center
12:43PM 37.7064 -121.5608 49° Northeast 398 458 19,700 1,680 Climbing Oakland Center
12:44PM 37.7828 -121.4456 50° Northeast 408 470 21,600 1,800 Climbing Oakland Center
12:45PM 37.8564 -121.3333 50° Northeast 413 475 23,400 1,800 Climbing Oakland Center
12:46PM 37.9306 -121.2228 50° Northeast 415 478 25,300 1,860 Climbing Oakland Center
12:47PM 38.0058 -121.1086 50° Northeast 423 487 27,200 1,800 Climbing Oakland Center
12:48PM 38.0769 -120.9864 54° Northeast 436 502 29,100 1,920 Climbing Oakland Center
12:49PM 38.1161 -120.8322 72° East 462 532 31,200 2,040 Climbing Oakland Center
12:50PM 38.1611 -120.6442 73° East 467 537 33,300 1,560 Climbing Oakland Center
12:51PM 38.1989 -120.4817 73° East 476 548 34,500 1,200 Climbing Oakland Center
12:52PM 38.2281 -120.3092 78° East 493 567 35,800 1,260 Climbing Oakland Center
12:53PM 38.2569 -120.1361 78° East 502 578 37,100 1,200 Climbing Oakland Center
12:54PM 38.2869 -119.9625 78° East 504 580 38,300 900 Climbing Oakland Center
12:55PM 38.3147 -119.7858 79° East 507 583 39,000 300 Climbing Oakland Center
12:56PM 38.3464 -119.6044 77° East 524 603 39,000  Level Oakland Center
12:57PM 38.3800 -119.3958 78° East 540 621 39,000  Level Oakland Center
12:58PM 38.4139 -119.2031 77° East 553 636 39,000  Level Oakland Center
12:59PM 38.4492 -119.0092 77° East 562 647 39,000  Level Oakland Center
01:00PM 38.4814 -118.8144 78° East 561 646 39,000  Level Oakland Center
01:01PM 38.5128 -118.6183 78° East 562 647 39,000  Level Oakland Center
01:02PM 38.5419 -118.4208 79° East 564 649 39,000  Level Oakland Center
01:03PM 38.5725 -118.2244 79° East 564 649 39,000  Level Oakland Center
01:04PM 38.6058 -117.9914 80° East 555 639 39,000  Level Oakland Center
01:05PM 38.6353 -117.7978 79° East 553 636 39,000  Level Oakland Center
01:06PM 38.6631 -117.6069 79° East 545 627 39,000  Level Oakland Center
01:07PM 38.6917 -117.4133 79° East 549 632 39,000  Level Oakland Center
01:09PM 38.7192 -117.2156 80° East 557 641 39,000  Level Oakland Center
01:10PM 38.7478 -117.0219 79° East 553 636 39,000  Level Oakland Center
01:10PM 38.7631 -116.9072 80° East 552 635 39,000  Level Salt Lake Center
01:11PM 38.7911 -116.7119 79° East 552 635 39,000  Level Salt Lake Center
01:12PM 38.8181 -116.5172 80° East 552 635 39,000  Level Salt Lake Center
01:13PM 38.8439 -116.3244 80° East 552 635 39,000  Level Salt Lake Center
01:14PM 38.8714 -116.1303 80° East 551 634 39,000  Level Salt Lake Center
01:15PM 38.8972 -115.9347 80° East 552 635 39,000  Level Salt Lake Center
01:16PM 38.9225 -115.7383 81° East 553 636 39,000  Level Salt Lake Center
01:17PM 38.9489 -115.5414 80° East 559 643 39,000  Level Salt Lake Center
01:18PM 38.9778 -115.3233 80° East 559 643 39,000  Level Salt Lake Center
01:19PM 39.0036 -115.1292 80° East 557 641 39,000  Level Salt Lake Center
01:20PM 39.0264 -114.9372 81° East 550 633 39,000  Level Salt Lake Center
01:21PM 39.0506 -114.7431 81° East 549 632 39,000  Level Salt Lake Center
01:22PM 39.0794 -114.5075 81° East 553 636 39,000  Level Salt Lake Center
01:23PM 39.1022 -114.3111 81° East 556 640 39,000  Level Salt Lake Center
01:25PM 39.1261 -114.1156 81° East 555 639 39,000  Level Salt Lake Center
01:26PM 39.1494 -113.9181 81° East 555 639 39,000  Level Salt Lake Center
01:27PM 39.1719 -113.7211 82° East 556 640 39,000  Level Salt Lake Center
01:28PM 39.1933 -113.5261 82° East 555 639 39,000  Level Salt Lake Center
01:29PM 39.2147 -113.3300 82° East 554 638 39,000  Level Salt Lake Center
01:30PM 39.2358 -113.1344 82° East 554 638 39,000  Level Salt Lake Center
01:31PM 39.2619 -112.8967 82° East 554 638 39,000  Level Salt Lake Center
01:32PM 39.2825 -112.6986 82° East 554 638 39,000  Level Salt Lake Center
01:33PM 39.3053 -112.4925 82° East 556 640 39,000  Level Salt Lake Center
01:34PM 39.3400 -112.3011 77° East 556 640 39,000  Level Salt Lake Center
01:35PM 39.3764 -112.1067 76° East 558 642 39,000  Level Salt Lake Center
01:36PM 39.4133 -111.9117 76° East 563 648 39,000  Level Salt Lake Center
01:37PM 39.4483 -111.7136 77° East 565 650 39,000  Level Salt Lake Center
01:38PM 39.4925 -111.4814 76° East 560 644 39,000  Level Salt Lake Center
01:39PM 39.5256 -111.2825 78° East 564 649 39,000  Level Salt Lake Center
01:40PM 39.5622 -111.0847 76° East 564 649 39,000  Level Salt Lake Center
01:41PM 39.5961 -110.8950 77° East 564 649 39,000  Level Salt Lake Center
01:42PM 39.6317 -110.6753 78° East 562 647 39,000  Level Salt Lake Center
01:43PM 39.6650 -110.4872 77° East 560 644 39,000  Level Salt Lake Center
01:44PM 39.7006 -110.2689 78° East 558 642 39,000  Level Salt Lake Center
01:45PM 39.7342 -110.0803 77° East 558 642 39,000  Level Salt Lake Center
01:46PM 39.7697 -109.8611 78° East 558 642 39,000  Level Salt Lake Center
01:47PM 39.7989 -109.6733 79° East 557 641 39,000  Level Salt Lake Center
01:48PM 39.8339 -109.4506 78° East 558 642 39,000  Level Salt Lake Center
01:49PM 39.8647 -109.2597 78° East 559 643 39,000  Level Salt Lake Center
01:50PM 39.8950 -109.0689 78° East 559 643 39,000  Level Salt Lake Center
01:51PM 39.9297 -108.8450 78° East 559 643 39,000  Level Salt Lake Center
01:52PM 39.9586 -108.6525 79° East 558 642 39,000  Level Salt Lake Center
01:53PM 39.9928 -108.4297 79° East 558 642 39,000  Level Salt Lake Center
01:54PM 40.0067 -108.3319 79° East 558 642 39,000  Level Denver Center
01:55PM 40.0347 -108.1428 79° East 557 641 39,000  Level Denver Center
01:56PM 40.0689 -107.9206 79° East 557 641 39,000  Level Denver Center
01:57PM 40.1097 -107.7364 74° East 555 639 39,000  Level Denver Center
01:58PM 40.1603 -107.5219 73° East 555 639 39,000  Level Denver Center
01:59PM 40.2017 -107.3358 74° East 555 639 39,000  Level Denver Center
02:00PM 40.2511 -107.1200 73° East 555 639 39,000  Level Denver Center
02:01PM 40.2925 -106.9342 74° East 555 639 39,000  Level Denver Center
02:02PM 40.3381 -106.7381 73° East 557 641 39,000  Level Denver Center
02:03PM 40.3908 -106.4972 74° East 557 641 39,000  Level Denver Center
02:05PM 40.4381 -106.2781 74° East 558 642 39,000  Level Denver Center
02:06PM 40.4806 -106.0772 74° East 557 641 39,000  Level Denver Center
02:07PM 40.5225 -105.8825 74° East 557 641 39,000  Level Denver Center
02:08PM 40.5631 -105.6864 75° East 557 641 39,000  Level Denver Center
02:09PM 40.6044 -105.4900 74° East 557 641 39,000  Level Denver Center
02:10PM 40.6500 -105.2122 78° East 556 640 39,000  Level Denver Center
02:11PM 40.6647 -105.0081 85° East 556 640 39,000  Level Denver Center
02:12PM 40.6800 -104.8047 84° East 557 641 39,000  Level Denver Center
02:13PM 40.6944 -104.6056 84° East 548 631 39,000  Level Denver Center
02:14PM 40.7083 -104.4028 85° East 554 638 39,000  Level Denver Center
02:15PM 40.7219 -104.1964 85° East 560 644 39,000  Level Denver Center
02:16PM 40.7364 -103.9908 85° East 561 646 39,000  Level Denver Center
02:17PM 40.7519 -103.7442 85° East 561 646 39,000  Level Denver Center
02:18PM 40.7644 -103.5386 85° East 561 646 39,000  Level Denver Center
02:19PM 40.7767 -103.3331 85° East 562 647 39,000  Level Denver Center
02:20PM 40.7892 -103.1297 85° East 560 644 39,000  Level Denver Center
02:21PM 40.8022 -102.9156 85° East 561 646 39,000  Level Denver Center
02:22PM 40.8131 -102.7181 86° East 561 646 39,000  Level Denver Center
02:23PM 40.8253 -102.4869 86° East 562 647 39,000  Level Denver Center
02:24PM 40.8350 -102.2889 86° East 563 648 39,000  Level Denver Center
02:25PM 40.8464 -102.0583 86° East 564 649 39,000  Level Denver Center
02:26PM 40.8556 -101.8592 86° East 566 651 39,000  Level Denver Center
02:27PM 40.8644 -101.6950 86° East 566 651 39,000  Level Denver Center
02:28PM 40.8753 -101.4314 87° East 564 649 39,000  Level Denver Center
02:29PM 40.8853 -101.2003 87° East 564 649 39,000  Level Denver Center
02:31PM 40.8936 -101.0006 87° East 564 649 39,000  Level Denver Center
02:32PM 40.9011 -100.7939 87° East 565 650 39,000  Level Denver Center
02:33PM 40.9106 -100.5614 87° East 564 649 39,000  Level Denver Center
02:34PM 40.9183 -100.3586 87° East 568 654 39,000  Level Denver Center
02:35PM 40.9244 -100.1614 88° East 567 652 39,000  Level Denver Center
02:36PM 40.9317 -99.9314 88° East 565 650 39,000  Level Denver Center
02:37PM 40.9383 -99.7206 88° East 562 647 39,000  Level Denver Center
02:38PM 40.9422 -99.5578 88° East 560 644 39,000  Level Denver Center
02:39PM 40.9489 -99.3122 88° East 560 644 39,000  Level Denver Center
02:40PM 40.9550 -99.0819 88° East 558 642 39,000  Level Denver Center
02:41PM 40.9583 -98.9208 88° East 560 644 39,000  Level Minneapolis Center
02:42PM 40.9622 -98.7158 88° East 560 644 39,000  Level Minneapolis Center
02:43PM 40.9661 -98.5111 88° East 560 644 39,000  Level Minneapolis Center
02:44PM 40.9697 -98.3019 89° East 560 644 39,000  Level Minneapolis Center
02:45PM 40.9725 -98.0964 89° East 560 644 39,000  Level Minneapolis Center
02:46PM 40.9750 -97.8917 89° East 560 644 39,000  Level Minneapolis Center
02:47PM 40.9775 -97.6439 89° East 560 644 39,000  Level Minneapolis Center
02:48PM 40.9800 -97.4358 89° East 562 647 39,000  Level Minneapolis Center
02:49PM 40.9817 -97.2331 89° East 565 650 39,000  Level Minneapolis Center
02:50PM 40.9819 -97.0250 90° East 565 650 39,000  Level Minneapolis Center
02:51PM 40.9828 -96.8178 90° East 565 650 39,000  Level Minneapolis Center
02:52PM 40.9844 -96.6136 89° East 564 649 39,000  Level Minneapolis Center
02:53PM 40.9847 -96.3667 90° East 564 649 39,000  Level Minneapolis Center
02:54PM 40.9842 -96.1617 90° East 564 649 39,000  Level Minneapolis Center
02:55PM 40.9839 -95.9575 90° East 564 649 39,000  Level Minneapolis Center
02:56PM 40.9822 -95.7503 91° East 565 650 39,000  Level Minneapolis Center
02:57PM 40.9811 -95.5450 90° East 565 650 39,000  Level Minneapolis Center
02:58PM 40.9797 -95.3386 90° East 565 650 39,000  Level Minneapolis Center
02:59PM 40.9769 -95.0911 91° East 565 650 39,000  Level Minneapolis Center
03:00PM 40.9747 -94.8828 91° East 565 650 39,000  Level Minneapolis Center
03:01PM 40.9719 -94.6769 91° East 565 650 39,000  Level Minneapolis Center
03:02PM 40.9669 -94.4717 92° East 565 650 39,000  Level Minneapolis Center
03:03PM 40.9628 -94.2664 91° East 565 650 39,000  Level Minneapolis Center
03:04PM 40.9583 -94.0586 92° East 565 650 39,000  Level Minneapolis Center
03:05PM 40.9536 -93.8494 92° East 570 656 39,000  Level Minneapolis Center
03:06PM 40.9481 -93.5950 92° East 574 661 39,000  Level Minneapolis Center
03:07PM 40.9436 -93.3833 92° East 577 664 39,000 240 Level Minneapolis Center
03:08PM 40.9375 -93.1714 92° East 577 664 39,500 720 Climbing Minneapolis Center
03:09PM 40.9325 -92.9653 92° East 570 656 40,500 720 Climbing Minneapolis Center
03:10PM 40.9258 -92.7633 92° East 558 642 41,000 240 Climbing Minneapolis Center
03:11PM 40.9203 -92.5603 92° East 557 641 41,000  Level Minneapolis Center
03:12PM 40.9131 -92.3522 93° East 558 642 41,000  Level Minneapolis Center
03:13PM 40.9042 -92.1453 93° East 561 646 41,000  Level Minneapolis Center
03:14PM 40.8975 -91.9403 92° East 561 646 41,000  Level Minneapolis Center
03:16PM 40.8883 -91.7164 93° East 561 646 41,000  Level Minneapolis Center
03:17PM 40.8758 -91.4064 93° East 561 646 41,000  Level Chicago Center
03:18PM 40.8669 -91.2042 93° East 563 648 41,000  Level Chicago Center
03:19PM 40.8572 -90.9975 93° East 567 652 41,000  Level Chicago Center
03:20PM 40.8475 -90.7908 93° East 564 649 41,000  Level Chicago Center
03:21PM 40.8375 -90.5828 94° East 567 652 41,000  Level Chicago Center
03:22PM 40.8264 -90.3769 94° East 564 649 41,000  Level Chicago Center
03:23PM 40.8131 -90.1283 94° East 566 651 41,000  Level Chicago Center
03:24PM 40.8025 -89.9192 94° East 564 649 41,000  Level Chicago Center
03:25PM 40.7883 -89.7028 95° East 564 649 41,000  Level Chicago Center
03:26PM 40.7761 -89.4944 94° East 565 650 41,000  Level Chicago Center
03:27PM 40.7639 -89.2878 94° East 564 649 41,000  Level Chicago Center
03:28PM 40.7508 -89.0817 95° East 564 649 41,000  Level Chicago Center
03:29PM 40.7378 -88.8753 95° East 566 651 41,000  Level Chicago Center
03:30PM 40.7239 -88.6697 95° East 565 650 41,000  Level Chicago Center
03:31PM 40.7103 -88.4642 95° East 563 648 41,000  Level Chicago Center
03:32PM 40.6919 -88.2164 95° East 566 651 41,000  Level Chicago Center
03:33PM 40.6772 -88.0097 95° East 568 654 41,000  Level Chicago Center
03:34PM 40.6625 -87.8044 95° East 564 649 41,000  Level Chicago Center
03:35PM 40.6486 -87.6064 95° East 564 649 41,000  Level Chicago Center
03:37PM 40.6314 -87.4022 96° East 561 646 41,000  Level Chicago Center
03:38PM 40.6153 -87.1972 96° East 563 648 41,000  Level Chicago Center
03:39PM 40.5956 -86.9508 96° East 564 649 41,000  Level Chicago Center
03:40PM 40.5783 -86.7450 96° East 565 650 41,000  Level Chicago Center
03:41PM 40.5606 -86.5403 96° East 564 649 41,000  Level Chicago Center
03:42PM 40.5431 -86.3336 96° East 566 651 41,000  Level Chicago Center
03:43PM 40.5244 -86.1264 97° East 568 654 41,000  Level Chicago Center
03:44PM 40.5050 -85.9186 97° East 569 655 41,000  Level Chicago Center
03:45PM 40.4828 -85.6706 97° East 570 656 41,000  Level Chicago Center
03:46PM 40.4631 -85.4625 97° East 570 656 41,000  Level Chicago Center
03:47PM 40.4419 -85.2533 97° East 574 661 41,000  Level Chicago Center
03:48PM 40.4222 -85.0456 97° East 575 662 41,000  Level Chicago Center
03:49PM 40.4011 -84.8394 98° East 572 658 41,000  Level Chicago Center
03:50PM 40.3792 -84.6200 97° East 575 662 41,000  Level Chicago Center
03:51PM 40.3581 -84.4222 98° East 577 664 41,000  Level Chicago Center
03:52PM 40.3353 -84.2050 98° East 577 664 41,000  Level Chicago Center
03:53PM 40.3081 -83.9572 98° East 576 663 41,000  Level Chicago Center
03:54PM 40.2858 -83.7508 98° East 576 663 41,000  Level Chicago Center
03:56PM 40.2511 -83.4358 98° East 575 662 41,000  Level Indianapolis Center
03:57PM 40.2267 -83.2269 99° East 575 662 41,000  Level Indianapolis Center
03:58PM 40.2028 -83.0183 98° East 575 662 41,000  Level Indianapolis Center
03:59PM 40.1778 -82.8111 99° East 575 662 41,000  Level Indianapolis Center
04:00PM 40.1533 -82.6064 99° East 575 662 41,000  Level Indianapolis Center
04:01PM 40.1144 -82.4061 104° East 570 656 41,000  Level Indianapolis Center
04:02PM 40.0725 -82.2069 105° East 569 655 41,000  Level Indianapolis Center
04:03PM 40.0225 -81.9692 105° East 569 655 41,000  Level Indianapolis Center
04:04PM 39.9811 -81.7708 105° East 565 650 41,000  Level Indianapolis Center
04:05PM 39.9389 -81.5761 106° East 565 650 41,000  Level Indianapolis Center
04:06PM 39.8958 -81.3775 106° East 565 650 41,000  Level Indianapolis Center
04:07PM 39.8531 -81.1800 106° East 565 650 41,000  Level Indianapolis Center
04:08PM 39.8103 -80.9833 106° East 565 650 41,000 -60 Level Indianapolis Center
04:09PM 39.7675 -80.7875 106° East 564 649 40,900 -780 Descending Indianapolis Center
04:10PM 39.7142 -80.5511 106° East 564 649 39,500 -1,500 Descending Indianapolis Center
04:11PM 39.6675 -80.3483 107° East 578 665 37,900 -2,040 Descending Indianapolis Center
04:12PM 39.6222 -80.1486 106° East 579 666 35,400 -4,740 Descending Indianapolis Center
04:13PM 39.5733 -79.9208 105° East 570 656 27,000 -2,640 Descending Washington Center
04:14PM 39.5344 -79.7275 105° East 556 640 29,400  Climbing Washington Center
04:15PM 39.5033 -79.5372 102° East 551 634 27,000 -1,920 Descending Washington Center
04:16PM 39.4694 -79.3528 103° East 539 620 25,700 -1,440 Descending Washington Center
04:17PM 39.4331 -79.1814 105° East 520 598 24,200 -1,260 Descending Washington Center
04:18PM 39.4042 -79.0269 104° East 475 547 23,200 -1,620 Descending Washington Center
04:19PM 39.3792 -78.8833 103° East 435 501 21,000 -2,280 Descending Washington Center
04:20PM 39.3558 -78.7428 102° East 412 474 18,800 -2,040 Descending Washington Center
04:21PM 39.3300 -78.6047 104° East 401 461 16,900 -2,040 Descending Washington Center
04:22PM 39.3064 -78.4725 103° East 387 445 14,800 -1,920 Descending Washington Center
04:23PM 39.2778 -78.3533 107° East 369 425 13,200 -1,740 Descending Washington Center
04:24PM 39.2278 -78.2550 123° Southeast 341 392 11,400 -1,500 Descending Washington Center
04:25PM 39.1819 -78.1675 124° Southeast 319 367 10,200 -720 Descending Washington Center
04:26PM 39.1378 -78.0883 126° Southeast 295 339 10,000 -360 Descending Washington Center
04:27PM 39.0914 -78.0011 124° Southeast 289 333 9,500 -1,200 Descending Washington Center
04:28PM 39.0453 -77.9142 124° Southeast 289 333 7,700 -1,680 Descending Washington Center
04:29PM 39.0011 -77.8272 123° Southeast 283 326 6,100 -960 Descending Washington Center
04:30PM 38.9650 -77.7461 120° Southeast 271 312 5,800 -180 Descending Washington Center
04:31PM 38.9500 -77.6494 101° East 266 306 5,800 60 Level Washington Center
04:32PM 38.9000 -77.6000 142° Southeast 271 312 6,000 -60 Climbing Potomac TRACON
04:33PM 38.8333 -77.5667 159° South 228 262 5,700 -480 Descending Potomac TRACON
04:34PM 38.7833 -77.5833 195° South 200 230 5,100 -840 Descending Potomac TRACON
04:35PM 38.7500 -77.5333 131° Southeast 211 243 4,100 -1,020 Descending Potomac TRACON
04:36PM 38.7833 -77.4833 49° Northeast 191 220 3,100 -900 Descending Potomac TRACON
04:37PM 38.8167 -77.4500 38° Northeast 167 192 2,300 -840 Descending Potomac TRACON
04:38PM 38.8667 -77.4333 15° North 166 191 1,500 -840 Descending Potomac TRACON
04:39PM 38.9000 -77.4333 360° North 135 155 700 -840 Descending Potomac TRACON
04:41PM 38.9333 -77.4500 10° North  Level FlightAware Approximate
04:48PM 38.9474 -77.4599 10° North  Level Estimated
04:49PM 38.9474 -77.4599 186° South  Level Estimated
04:50PM 38.9474 -77.4599 10° North  Level Estimated